createdAt,value
2022-08-22T00:00:19.367Z,18.65
2022-08-22T00:02:47.157Z,19.69
2022-08-22T00:02:48.773Z,20.49
2022-08-22T00:02:55.671Z,18.72
2022-08-22T00:03:09.503Z,18.61
2022-08-22T00:05:54.215Z,18.61
2022-08-22T00:11:40.739Z,18.58
2022-08-22T00:17:17.843Z,18.48
2022-08-22T00:22:35.524Z,18.44
2022-08-22T00:27:56.689Z,18.43
2022-08-22T00:33:11.696Z,18.38
2022-08-22T00:38:29.428Z,18.27
2022-08-22T00:44:28.435Z,18.34
2022-08-22T00:49:31.890Z,18.33
2022-08-22T00:54:35.216Z,18.23
2022-08-22T00:59:56.638Z,18.19
2022-08-22T01:05:22.233Z,18.17
2022-08-22T01:11:09.615Z,18.08
2022-08-22T01:16:56.410Z,18.11
2022-08-22T01:22:37.082Z,18.04
2022-08-22T01:28:24.379Z,18.03
2022-08-22T01:33:34.653Z,18.06
2022-08-22T01:38:59.567Z,18.03
2022-08-22T01:44:13.528Z,18.04
2022-08-22T01:49:29.948Z,17.98
2022-08-22T01:54:39.995Z,17.87
2022-08-22T01:59:55.617Z,17.81
2022-08-22T02:05:32.208Z,17.78
2022-08-22T02:11:03.986Z,17.86
2022-08-22T02:16:20.773Z,17.99
2022-08-22T02:22:20.549Z,18.10
2022-08-22T02:27:32.267Z,18.20
2022-08-22T02:32:41.533Z,18.24
2022-08-22T02:38:16.358Z,18.20
2022-08-22T02:43:49.664Z,18.25
2022-08-22T02:48:53.089Z,18.29
2022-08-22T02:54:38.078Z,18.34
2022-08-22T03:00:31.313Z,18.14
2022-08-22T03:05:38.666Z,18.13
2022-08-22T03:11:03.686Z,18.19
2022-08-22T03:16:22.355Z,18.26
2022-08-22T03:21:46.045Z,18.32
2022-08-22T03:27:32.384Z,18.39
2022-08-22T03:32:55.850Z,18.34
2022-08-22T03:38:20.561Z,18.29
2022-08-22T03:44:33.404Z,18.38
2022-08-22T03:50:14.356Z,18.42
2022-08-22T03:56:13.748Z,18.43
2022-08-22T04:02:03.415Z,18.39
2022-08-22T04:08:26.118Z,18.35
2022-08-22T04:13:59.721Z,18.43
2022-08-22T04:19:33.136Z,18.53
2022-08-22T04:24:52.368Z,18.52
2022-08-22T04:30:34.747Z,18.53
2022-08-22T04:36:10.505Z,18.50
2022-08-22T04:41:49.164Z,18.48
2022-08-22T04:47:02.814Z,18.48
2022-08-22T04:52:22.407Z,18.59
2022-08-22T04:57:52.264Z,18.68
2022-08-22T05:02:58.215Z,18.74
2022-08-22T05:08:06.686Z,18.77
2022-08-22T05:13:23.892Z,18.77
2022-08-22T05:18:35.077Z,18.75
2022-08-22T05:23:53.525Z,18.86
2022-08-22T05:29:03.920Z,18.88
2022-08-22T05:34:20.708Z,18.88
2022-08-22T05:39:28.337Z,18.94
2022-08-22T05:44:38.158Z,18.92
2022-08-22T05:50:06.711Z,18.94
2022-08-22T05:55:32.671Z,19.00
2022-08-22T06:00:43.113Z,19.06
2022-08-22T06:05:53.359Z,19.12
2022-08-22T06:11:02.576Z,19.18
2022-08-22T06:16:17.866Z,19.15
2022-08-22T06:21:38.600Z,19.22
2022-08-22T06:26:48.892Z,19.26
2022-08-22T06:31:52.887Z,19.35
2022-08-22T06:36:59.067Z,19.40
2022-08-22T06:42:16.937Z,19.44
2022-08-22T06:47:28.321Z,19.42
2022-08-22T06:52:39.210Z,19.50
2022-08-22T06:57:44.567Z,19.57
2022-08-22T07:02:58.835Z,19.60
2022-08-22T07:08:16.393Z,19.79
2022-08-22T07:13:20.615Z,19.89
2022-08-22T07:18:28.740Z,20.02
2022-08-22T07:23:48.332Z,20.07
2022-08-22T07:29:11.722Z,20.23
2022-08-22T07:34:42.777Z,20.41
2022-08-22T07:40:15.865Z,20.45
2022-08-22T07:45:32.330Z,20.52
2022-08-22T07:50:51.794Z,20.54
2022-08-22T07:55:58.273Z,20.64
2022-08-22T08:01:02.839Z,20.71
2022-08-22T08:06:08.976Z,20.73
2022-08-22T08:11:16.205Z,20.92
2022-08-22T08:16:26.581Z,21.06
2022-08-22T08:21:39.626Z,21.05
2022-08-22T08:27:10.988Z,21.04
2022-08-22T08:32:14.846Z,21.05
2022-08-22T08:37:29.125Z,21.12
2022-08-22T08:43:10.942Z,21.28
2022-08-22T08:48:27.623Z,21.51
2022-08-22T08:54:05.573Z,21.78
2022-08-22T08:59:44.263Z,22.10
2022-08-22T09:05:16.493Z,22.43
2022-08-22T09:10:39.546Z,22.62
2022-08-22T09:16:10.025Z,22.57
2022-08-22T09:21:44.771Z,22.56
2022-08-22T09:26:57.217Z,22.83
2022-08-22T09:32:16.113Z,23.04
2022-08-22T09:37:53.832Z,22.95
2022-08-22T09:43:21.590Z,22.76
2022-08-22T09:48:43.801Z,22.63
2022-08-22T09:54:08.727Z,22.54
2022-08-22T09:59:23.604Z,22.54
2022-08-22T10:04:38.797Z,22.58
2022-08-22T10:10:04.429Z,22.78
2022-08-22T10:15:32.217Z,22.91
2022-08-22T10:21:00.732Z,23.13
2022-08-22T10:26:37.921Z,23.12
2022-08-22T10:31:59.450Z,23.13
2022-08-22T10:37:39.622Z,23.23
2022-08-22T10:42:59.385Z,23.43
2022-08-22T10:48:08.963Z,23.63
2022-08-22T10:53:36.981Z,23.73
2022-08-22T10:58:56.562Z,23.80
2022-08-22T11:04:40.333Z,23.86
2022-08-22T11:09:45.023Z,24.01
2022-08-22T11:15:04.842Z,24.16
2022-08-22T11:20:22.937Z,24.40
2022-08-22T11:25:41.606Z,24.71
2022-08-22T11:31:36.735Z,24.49
2022-08-22T11:37:17.830Z,24.12
2022-08-22T11:42:33.626Z,24.05
2022-08-22T11:48:07.869Z,24.33
2022-08-22T11:54:11.250Z,24.50
2022-08-22T11:59:43.041Z,24.67
2022-08-22T12:05:01.901Z,24.88
2022-08-22T12:10:18.063Z,24.89
2022-08-22T12:15:53.928Z,24.89
2022-08-22T12:21:42.366Z,24.93
2022-08-22T12:27:27.929Z,25.03
2022-08-22T12:33:13.218Z,25.24
2022-08-22T12:38:38.639Z,25.19
2022-08-22T12:43:56.070Z,25.16
2022-08-22T12:49:08.293Z,25.17
2022-08-22T12:54:27.276Z,25.20
2022-08-22T12:59:42.659Z,25.21
2022-08-22T13:05:03.391Z,25.18
2022-08-22T13:10:17.593Z,25.28
2022-08-22T13:15:41.857Z,25.40
2022-08-22T13:20:50.649Z,25.56
2022-08-22T13:26:09.911Z,25.52
2022-08-22T13:31:36.206Z,25.53
2022-08-22T13:36:51.902Z,25.51
2022-08-22T13:42:00.733Z,25.54
2022-08-22T13:47:14.769Z,25.47
2022-08-22T13:52:31.771Z,25.41
2022-08-22T13:57:43.306Z,25.60
2022-08-22T14:03:13.191Z,25.83
2022-08-22T14:08:26.143Z,26.07
2022-08-22T14:13:55.993Z,25.92
2022-08-22T14:19:24.482Z,25.83
2022-08-22T14:24:55.546Z,25.80
2022-08-22T14:30:09.249Z,25.77
2022-08-22T14:35:34.560Z,25.70
2022-08-22T14:40:42.240Z,25.50
2022-08-22T14:45:57.732Z,25.31
2022-08-22T14:51:17.637Z,25.16
2022-08-22T14:56:28.523Z,25.08
2022-08-22T15:02:00.708Z,24.97
2022-08-22T15:07:05.766Z,24.71
2022-08-22T15:12:34.277Z,24.47
2022-08-22T15:17:45.065Z,24.38
2022-08-22T15:22:52.788Z,24.50
2022-08-22T15:28:17.142Z,24.62
2022-08-22T15:33:35.949Z,24.55
2022-08-22T15:38:48.323Z,24.50
2022-08-22T15:44:08.131Z,24.59
2022-08-22T15:49:21.210Z,24.88
2022-08-22T15:54:42.655Z,25.41
2022-08-22T16:00:00.273Z,25.75
2022-08-22T16:05:09.345Z,26.06
2022-08-22T16:10:24.845Z,25.87
2022-08-22T16:15:57.743Z,25.82
2022-08-22T16:21:05.973Z,25.59
2022-08-22T16:26:12.421Z,25.07
2022-08-22T16:31:43.048Z,24.71
2022-08-22T16:37:18.311Z,24.29
2022-08-22T16:42:27.260Z,24.02
2022-08-22T16:47:30.725Z,23.82
2022-08-22T16:53:02.031Z,23.69
2022-08-22T16:58:23.432Z,23.55
2022-08-22T17:04:29.510Z,23.37
2022-08-22T17:09:50.804Z,23.07
2022-08-22T17:15:25.189Z,22.90
2022-08-22T17:20:44.876Z,22.76
2022-08-22T17:26:28.227Z,22.69
2022-08-22T17:32:05.438Z,22.60
2022-08-22T17:37:41.540Z,22.33
2022-08-22T17:43:22.200Z,22.11
2022-08-22T17:48:50.395Z,21.94
2022-08-22T17:54:13.125Z,21.76
2022-08-22T17:59:20.686Z,21.69
2022-08-22T18:04:47.505Z,21.64
2022-08-22T18:10:17.580Z,21.53
2022-08-22T18:15:33.686Z,21.48
2022-08-22T18:20:53.144Z,21.39
2022-08-22T18:26:47.073Z,21.33
2022-08-22T18:32:28.785Z,21.30
2022-08-22T18:37:35.327Z,21.32
2022-08-22T18:43:14.316Z,21.31
2022-08-22T18:48:59.220Z,21.24
2022-08-22T18:54:05.293Z,21.14
2022-08-22T18:59:41.159Z,21.10
2022-08-22T19:05:10.330Z,20.99
2022-08-22T19:10:41.235Z,20.98
2022-08-22T19:16:27.655Z,20.92
2022-08-22T19:21:55.648Z,20.83
2022-08-22T19:27:11.352Z,20.76
2022-08-22T19:32:50.398Z,20.69
2022-08-22T19:38:03.029Z,20.61
2022-08-22T19:43:37.177Z,20.58
2022-08-22T19:48:50.591Z,20.48
2022-08-22T19:54:16.481Z,20.41
2022-08-22T19:59:50.683Z,20.35
2022-08-22T20:05:17.446Z,20.32
2022-08-22T20:10:40.728Z,20.28
2022-08-22T20:16:05.651Z,20.29
2022-08-22T20:21:08.992Z,20.25
2022-08-22T20:26:16.063Z,20.19
2022-08-22T20:31:27.247Z,20.13
2022-08-22T20:36:31.899Z,20.12
2022-08-22T20:41:45.658Z,20.18
2022-08-22T20:46:53.431Z,20.29
2022-08-22T20:52:12.149Z,20.27
2022-08-22T20:57:20.077Z,20.18
2022-08-22T21:02:40.890Z,20.12
2022-08-22T21:07:48.186Z,20.12
2022-08-22T21:13:25.383Z,20.16
2022-08-22T21:18:35.671Z,20.15
2022-08-22T21:23:43.488Z,20.10
2022-08-22T21:28:49.700Z,20.01
2022-08-22T21:33:55.924Z,19.91
2022-08-22T21:39:12.978Z,19.94
2022-08-22T21:44:37.284Z,20.00
2022-08-22T21:50:00.561Z,20.01
2022-08-22T21:55:26.708Z,19.89
2022-08-22T22:00:58.753Z,19.87
2022-08-22T22:06:05.831Z,19.82
2022-08-22T22:11:15.056Z,19.87
2022-08-22T22:16:26.868Z,19.84
2022-08-22T22:21:30.234Z,19.90
2022-08-22T22:26:33.545Z,19.96
2022-08-22T22:31:37.399Z,19.95
2022-08-22T22:36:43.028Z,19.91
2022-08-22T22:41:46.793Z,19.87
2022-08-22T22:46:50.198Z,19.79
2022-08-22T22:51:53.618Z,19.74
2022-08-22T22:56:58.669Z,19.73
2022-08-22T23:02:07.816Z,19.72
2022-08-22T23:07:14.978Z,19.65
2022-08-22T23:12:18.676Z,19.59
2022-08-22T23:17:25.735Z,19.56
2022-08-22T23:22:30.479Z,19.48
2022-08-22T23:27:34.306Z,19.49
2022-08-22T23:32:38.444Z,19.51
2022-08-22T23:37:41.917Z,19.55
2022-08-22T23:42:45.362Z,19.53
2022-08-22T23:47:49.392Z,19.46
2022-08-22T23:52:52.808Z,19.42
2022-08-22T23:57:56.323Z,19.33
